Time;durP1;ratioP1;P1;durP2;ratioP2;P2;SDS_P1;SDS_P2;PMS_P1;PMS_P2;Temp;Humidity;BMP_temperature;BMP_pressure;BME280_temperature;BME280_humidity;BME280_pressure;Samples;Min_cycle;Max_cycle;Signal;HPM_P1;HPM_P2
2022/01/01 00:00:48;;;;;;;9.32;4.68;;;;;;;;;;5035583;28;20056;-84
2022/01/01 00:03:15;;;;;;;11.60;4.63;;;;;;;;;;5017071;28;20033;-84
2022/01/01 00:05:41;;;;;;;9.10;3.92;;;;;;;;;;5033068;28;20030;-86
2022/01/01 00:08:08;;;;;;;20.02;5.18;;;;;;;;;;5031235;28;20034;-83
2022/01/01 00:10:35;;;;;;;12.20;4.20;;;;;;;;;;5036725;28;20076;-83
2022/01/01 00:13:02;;;;;;;9.48;3.95;;;;;;;;;;5036390;28;20089;-84
2022/01/01 00:15:29;;;;;;;11.15;4.25;;;;;;;;;;5009463;28;20041;-83
2022/01/01 00:17:57;;;;;;;12.88;4.57;;;;;;;;;;5029734;28;20512;-83
2022/01/01 00:20:24;;;;;;;11.13;3.53;;;;;;;;;;5026211;28;20047;-85
2022/01/01 00:22:50;;;;;;;9.77;4.50;;;;;;;;;;5053139;28;20033;-85
2022/01/01 00:25:16;;;;;;;14.27;4.90;;;;;;;;;;5045853;28;20022;-84
2022/01/01 00:27:43;;;;;;;9.02;5.05;;;;;;;;;;5032823;28;20029;-84
2022/01/01 00:30:09;;;;;;;9.73;5.03;;;;;;;;;;5036530;28;20033;-84
2022/01/01 00:32:37;;;;;;;10.07;4.55;;;;;;;;;;5018379;28;20034;-84
2022/01/01 00:35:04;;;;;;;13.13;5.25;;;;;;;;;;5017588;28;20366;-84
2022/01/01 00:37:30;;;;;;;9.68;4.78;;;;;;;;;;4998842;28;20477;-84
2022/01/01 00:39:56;;;;;;;10.45;5.07;;;;;;;;;;5031777;28;20033;-84
2022/01/01 00:42:23;;;;;;;11.40;4.95;;;;;;;;;;5037245;28;20029;-84
2022/01/01 00:44:50;;;;;;;14.05;5.20;;;;;;;;;;5037181;28;20501;-83
2022/01/01 00:47:16;;;;;;;11.48;5.13;;;;;;;;;;5037369;28;20029;-83
2022/01/01 00:49:42;;;;;;;13.23;4.97;;;;;;;;;;5018896;28;20033;-83
2022/01/01 00:52:09;;;;;;;8.63;4.35;;;;;;;;;;5034604;28;20029;-84
2022/01/01 00:54:36;;;;;;;13.02;4.57;;;;;;;;;;5035151;28;20051;-84
2022/01/01 00:57:02;;;;;;;11.45;4.43;;;;;;;;;;5013148;28;20033;-84
2022/01/01 00:59:30;;;;;;;8.70;4.10;;;;;;;;;;5034851;28;20033;-84
2022/01/01 01:01:57;;;;;;;9.18;4.55;;;;;;;;;;5027189;28;20080;-83
2022/01/01 01:04:23;;;;;;;10.25;3.70;;;;;;;;;;5009667;28;20021;-85
2022/01/01 01:06:49;;;;;;;11.73;4.00;;;;;;;;;;5034011;28;20029;-84
2022/01/01 01:09:16;;;;;;;10.60;3.42;;;;;;;;;;5034942;28;20086;-84
2022/01/01 01:11:45;;;;;;;7.78;3.28;;;;;;;;;;5035270;28;20033;-84
2022/01/01 01:14:19;;;;;;;10.52;3.33;;;;;;;;;;5012007;28;20029;-84
2022/01/01 01:16:46;;;;;;;9.57;3.78;;;;;;;;;;5013259;28;20083;-83
2022/01/01 01:19:12;;;;;;;12.00;3.60;;;;;;;;;;5013576;28;20458;-83
2022/01/01 01:21:39;;;;;;;10.98;3.63;;;;;;;;;;5044224;28;20117;-84
2022/01/01 01:24:05;;;;;;;15.27;4.78;;;;;;;;;;5024348;28;20484;-85
2022/01/01 01:26:31;;;;;;;12.18;4.03;;;;;;;;;;5036946;28;20033;-84
2022/01/01 01:28:58;;;;;;;11.60;4.88;;;;;;;;;;5034112;28;20064;-83
2022/01/01 01:31:25;;;;;;;12.40;5.60;;;;;;;;;;5010462;28;20052;-84
2022/01/01 01:33:52;;;;;;;12.30;6.38;;;;;;;;;;5033759;28;20033;-84
2022/01/01 01:36:19;;;;;;;13.25;6.40;;;;;;;;;;5015446;28;20052;-84
2022/01/01 01:38:45;;;;;;;14.93;6.25;;;;;;;;;;5032987;28;20033;-84
2022/01/01 01:41:11;;;;;;;13.02;5.70;;;;;;;;;;5011797;28;20032;-83
2022/01/01 01:43:38;;;;;;;12.23;4.85;;;;;;;;;;5009321;28;20042;-83
2022/01/01 01:46:05;;;;;;;8.25;4.43;;;;;;;;;;5009974;28;20397;-85
2022/01/01 01:48:33;;;;;;;11.55;4.05;;;;;;;;;;5030189;28;20473;-84
2022/01/01 01:51:00;;;;;;;9.23;4.00;;;;;;;;;;5032232;28;20030;-84
2022/01/01 01:53:27;;;;;;;9.57;4.13;;;;;;;;;;5033459;28;20025;-82
2022/01/01 01:55:54;;;;;;;8.75;4.07;;;;;;;;;;5032469;28;20120;-84
2022/01/01 01:58:22;;;;;;;14.00;5.15;;;;;;;;;;5033613;28;20099;-84
2022/01/01 02:01:20;;;;;;;14.35;4.93;;;;;;;;;;5037447;28;20029;-83
2022/01/01 02:03:48;;;;;;;12.40;6.30;;;;;;;;;;5035450;28;20091;-85
2022/01/01 02:06:15;;;;;;;12.50;6.07;;;;;;;;;;5035045;28;20050;-83
2022/01/01 02:08:43;;;;;;;13.48;5.82;;;;;;;;;;5022759;28;20026;-84
2022/01/01 02:11:09;;;;;;;11.60;5.80;;;;;;;;;;5025865;28;20029;-83
2022/01/01 02:13:48;;;;;;;12.20;5.53;;;;;;;;;;5045346;28;20032;-83
2022/01/01 02:18:49;;;;;;;15.10;5.65;;;;;;;;;;5051192;28;21889;-83
2022/01/01 02:21:15;;;;;;;15.00;6.75;;;;;;;;;;5033350;28;20032;-83
2022/01/01 02:23:44;;;;;;;12.55;5.30;;;;;;;;;;5033730;28;20026;-84
2022/01/01 02:26:12;;;;;;;17.50;6.32;;;;;;;;;;5032959;28;20358;-84
2022/01/01 02:28:41;;;;;;;16.38;6.38;;;;;;;;;;5032717;28;20049;-83
2022/01/01 02:31:08;;;;;;;12.45;6.05;;;;;;;;;;5015128;28;20033;-82
2022/01/01 02:33:34;;;;;;;18.23;6.18;;;;;;;;;;5016082;28;20033;-82
2022/01/01 02:36:01;;;;;;;12.07;5.22;;;;;;;;;;5028840;28;20083;-83
2022/01/01 02:38:27;;;;;;;9.25;4.80;;;;;;;;;;5032987;28;20083;-84
2022/01/01 02:40:53;;;;;;;15.80;6.00;;;;;;;;;;5030667;28;20378;-84
2022/01/01 02:43:20;;;;;;;15.85;6.55;;;;;;;;;;5031909;28;20037;-84
2022/01/01 02:45:46;;;;;;;21.00;7.05;;;;;;;;;;5014221;28;20116;-84
2022/01/01 02:48:15;;;;;;;22.45;7.90;;;;;;;;;;5029723;28;20029;-83
2022/01/01 02:50:41;;;;;;;18.92;8.30;;;;;;;;;;5025010;28;20037;-84
2022/01/01 02:53:14;;;;;;;24.92;8.27;;;;;;;;;;5022227;28;20088;-85
2022/01/01 02:55:42;;;;;;;26.35;8.80;;;;;;;;;;5019652;28;20037;-85
2022/01/01 02:58:09;;;;;;;33.35;10.38;;;;;;;;;;5028493;28;20045;-85
2022/01/01 03:00:36;;;;;;;39.00;11.95;;;;;;;;;;5032274;28;20029;-84
2022/01/01 03:03:02;;;;;;;36.58;15.65;;;;;;;;;;5034362;28;20021;-84
2022/01/01 03:05:30;;;;;;;31.20;13.65;;;;;;;;;;5036147;28;20080;-84
2022/01/01 03:07:56;;;;;;;29.63;13.18;;;;;;;;;;5032298;28;20030;-84
2022/01/01 03:10:23;;;;;;;32.30;13.02;;;;;;;;;;5015373;28;20030;-85
2022/01/01 03:12:49;;;;;;;34.92;14.00;;;;;;;;;;5032517;28;20120;-84
2022/01/01 03:15:16;;;;;;;32.03;12.90;;;;;;;;;;5033512;28;20064;-82
2022/01/01 03:17:43;;;;;;;33.08;15.07;;;;;;;;;;5036203;28;20053;-83
2022/01/01 03:20:09;;;;;;;28.88;11.32;;;;;;;;;;5036570;28;20099;-83
2022/01/01 03:22:36;;;;;;;17.92;8.25;;;;;;;;;;5036514;28;20028;-84
2022/01/01 03:25:02;;;;;;;23.30;9.75;;;;;;;;;;5036426;28;20026;-83
2022/01/01 03:27:29;;;;;;;23.48;9.73;;;;;;;;;;5018506;28;20033;-83
2022/01/01 03:29:56;;;;;;;32.28;10.38;;;;;;;;;;5036177;28;20033;-83
2022/01/01 03:32:23;;;;;;;18.63;9.10;;;;;;;;;;5017984;28;20068;-83
2022/01/01 03:34:51;;;;;;;21.73;9.50;;;;;;;;;;5030349;28;20063;-83
2022/01/01 03:37:17;;;;;;;25.58;9.70;;;;;;;;;;5012024;28;20477;-83
2022/01/01 03:39:43;;;;;;;24.95;10.75;;;;;;;;;;5012294;28;20036;-83
2022/01/01 03:42:10;;;;;;;27.20;13.00;;;;;;;;;;5029330;28;20025;-84
2022/01/01 03:44:36;;;;;;;28.50;11.57;;;;;;;;;;5025940;28;20499;-84
2022/01/01 03:47:09;;;;;;;28.92;11.55;;;;;;;;;;5009929;28;20030;-83
2022/01/01 03:49:41;;;;;;;29.45;10.50;;;;;;;;;;5024356;28;20100;-84
2022/01/01 03:52:07;;;;;;;25.25;10.18;;;;;;;;;;5029963;28;20125;-83
2022/01/01 03:54:34;;;;;;;20.05;9.95;;;;;;;;;;5025364;28;20037;-84
2022/01/01 03:57:01;;;;;;;20.88;9.95;;;;;;;;;;5030088;28;20029;-84
2022/01/01 03:59:27;;;;;;;24.70;11.55;;;;;;;;;;5011689;28;20040;-84
2022/01/01 04:01:55;;;;;;;27.15;13.48;;;;;;;;;;5026716;28;20022;-82
2022/01/01 04:04:23;;;;;;;31.77;12.38;;;;;;;;;;5033013;28;20433;-83
2022/01/01 04:06:50;;;;;;;32.17;12.45;;;;;;;;;;5033406;28;20029;-82
2022/01/01 04:09:16;;;;;;;27.88;12.35;;;;;;;;;;5044722;28;20034;-84
2022/01/01 04:11:42;;;;;;;22.25;12.23;;;;;;;;;;5027254;28;20040;-83
2022/01/01 04:14:15;;;;;;;36.08;14.55;;;;;;;;;;5041710;28;20108;-83
2022/01/01 04:16:41;;;;;;;56.67;25.70;;;;;;;;;;5034978;28;20116;-83
2022/01/01 04:19:08;;;;;;;55.67;27.48;;;;;;;;;;5033608;28;20056;-83
2022/01/01 04:21:34;;;;;;;59.95;26.83;;;;;;;;;;5045495;28;20033;-83
2022/01/01 04:24:02;;;;;;;47.20;24.20;;;;;;;;;;5035417;28;20473;-84
2022/01/01 04:26:28;;;;;;;49.60;21.70;;;;;;;;;;5029836;28;20292;-84
2022/01/01 04:28:55;;;;;;;54.35;24.75;;;;;;;;;;5017488;28;20044;-84
2022/01/01 04:31:22;;;;;;;50.75;23.15;;;;;;;;;;5034239;28;20112;-82
2022/01/01 04:33:48;;;;;;;47.97;20.67;;;;;;;;;;5015365;28;20036;-83
2022/01/01 04:36:15;;;;;;;47.13;19.25;;;;;;;;;;5028924;28;20032;-82
2022/01/01 04:38:42;;;;;;;49.13;18.92;;;;;;;;;;5034965;28;20033;-83
2022/01/01 04:41:12;;;;;;;42.75;17.80;;;;;;;;;;5034734;28;20018;-82
2022/01/01 04:43:40;;;;;;;37.42;18.88;;;;;;;;;;5032704;28;20032;-83
2022/01/01 04:46:06;;;;;;;37.60;17.40;;;;;;;;;;5014930;28;20431;-83
2022/01/01 04:48:36;;;;;;;30.55;15.93;;;;;;;;;;5031618;28;20029;-82
2022/01/01 04:51:05;;;;;;;28.77;13.82;;;;;;;;;;5035083;28;20476;-83
2022/01/01 04:53:32;;;;;;;26.52;13.32;;;;;;;;;;5016550;28;20380;-83
2022/01/01 04:56:02;;;;;;;22.05;9.48;;;;;;;;;;5016193;28;20120;-83
2022/01/01 04:58:28;;;;;;;20.67;9.73;;;;;;;;;;5034751;28;20029;-85
2022/01/01 05:00:54;;;;;;;15.65;8.20;;;;;;;;;;5016811;28;20358;-83
2022/01/01 05:03:21;;;;;;;18.17;7.22;;;;;;;;;;5032460;28;20033;-85
2022/01/01 05:05:47;;;;;;;15.10;7.82;;;;;;;;;;5034381;28;20464;-86
2022/01/01 05:08:13;;;;;;;14.63;7.80;;;;;;;;;;5034505;28;20029;-86
2022/01/01 05:10:40;;;;;;;22.85;9.05;;;;;;;;;;5016280;28;20037;-84
2022/01/01 05:13:06;;;;;;;21.48;8.95;;;;;;;;;;5017424;28;20040;-83
2022/01/01 05:15:32;;;;;;;16.75;10.02;;;;;;;;;;5031757;28;20026;-83
2022/01/01 05:17:59;;;;;;;17.17;9.60;;;;;;;;;;5034403;28;20045;-83
2022/01/01 05:20:26;;;;;;;16.40;8.93;;;;;;;;;;5033758;28;20619;-83
2022/01/01 05:22:52;;;;;;;15.15;7.40;;;;;;;;;;5012973;28;20068;-83
2022/01/01 05:25:18;;;;;;;16.23;8.23;;;;;;;;;;5033465;28;20025;-85
2022/01/01 05:27:44;;;;;;;11.68;6.75;;;;;;;;;;5014872;28;20021;-84
2022/01/01 05:30:12;;;;;;;13.35;6.88;;;;;;;;;;5029287;28;20488;-84
2022/01/01 05:32:38;;;;;;;16.10;6.70;;;;;;;;;;5032022;28;20029;-83
2022/01/01 05:35:05;;;;;;;17.52;7.38;;;;;;;;;;5033561;28;20029;-83
2022/01/01 05:37:31;;;;;;;12.88;6.95;;;;;;;;;;5033418;28;20083;-83
2022/01/01 05:39:57;;;;;;;9.57;4.60;;;;;;;;;;5032315;28;20029;-83
2022/01/01 05:42:24;;;;;;;10.73;5.63;;;;;;;;;;5013059;28;20139;-83
2022/01/01 05:44:50;;;;;;;14.35;5.65;;;;;;;;;;5031071;28;20041;-83
2022/01/01 05:47:17;;;;;;;10.07;5.10;;;;;;;;;;5028502;28;20079;-85
2022/01/01 05:49:43;;;;;;;11.73;5.35;;;;;;;;;;5032619;28;20112;-84
2022/01/01 05:52:10;;;;;;;14.77;4.60;;;;;;;;;;5032232;28;20025;-83
2022/01/01 05:54:36;;;;;;;15.43;4.53;;;;;;;;;;5016105;28;20108;-83
2022/01/01 05:57:03;;;;;;;9.95;4.63;;;;;;;;;;5031737;28;20033;-82
2022/01/01 05:59:29;;;;;;;11.00;4.65;;;;;;;;;;5031553;28;20029;-84
2022/01/01 06:01:55;;;;;;;10.13;5.30;;;;;;;;;;5013400;28;20026;-83
2022/01/01 06:04:22;;;;;;;9.18;4.63;;;;;;;;;;5032559;28;20021;-83
2022/01/01 06:06:49;;;;;;;13.70;6.03;;;;;;;;;;5031227;28;20029;-84
2022/01/01 06:09:15;;;;;;;16.00;6.05;;;;;;;;;;5032902;28;20040;-84
2022/01/01 06:11:42;;;;;;;13.52;7.25;;;;;;;;;;5015933;28;20055;-84
2022/01/01 06:14:08;;;;;;;12.35;5.93;;;;;;;;;;5028472;28;20037;-84
2022/01/01 06:16:34;;;;;;;16.45;8.32;;;;;;;;;;5028075;28;20032;-84
2022/01/01 06:19:00;;;;;;;16.17;7.18;;;;;;;;;;5027566;28;20045;-84
2022/01/01 06:21:27;;;;;;;14.90;6.43;;;;;;;;;;5011339;28;20029;-84
2022/01/01 06:23:53;;;;;;;16.33;6.68;;;;;;;;;;5012773;28;20037;-84
2022/01/01 06:26:19;;;;;;;16.50;7.07;;;;;;;;;;5029701;28;20072;-84
2022/01/01 06:28:46;;;;;;;19.02;8.38;;;;;;;;;;5006099;28;20029;-84
2022/01/01 06:31:13;;;;;;;52.60;28.52;;;;;;;;;;5031120;28;20034;-84
2022/01/01 06:33:40;;;;;;;45.67;28.33;;;;;;;;;;5030137;28;20081;-83
2022/01/01 06:36:07;;;;;;;87.38;52.33;;;;;;;;;;5009965;28;20017;-83
2022/01/01 06:38:33;;;;;;;146.15;93.28;;;;;;;;;;5010690;28;20487;-82
2022/01/01 06:41:01;;;;;;;136.63;89.40;;;;;;;;;;5041945;28;20089;-84
2022/01/01 06:43:27;;;;;;;154.75;99.00;;;;;;;;;;5030325;28;20033;-82
2022/01/01 06:45:53;;;;;;;137.88;91.78;;;;;;;;;;5011308;28;20045;-82
2022/01/01 06:48:20;;;;;;;138.77;88.18;;;;;;;;;;5016896;28;20033;-83
2022/01/01 06:50:46;;;;;;;149.60;95.90;;;;;;;;;;5028167;28;20084;-83
2022/01/01 06:53:12;;;;;;;141.65;90.60;;;;;;;;;;5039115;28;20030;-82
2022/01/01 06:55:39;;;;;;;134.15;84.20;;;;;;;;;;5026662;28;20059;-82
2022/01/01 06:58:06;;;;;;;130.88;81.53;;;;;;;;;;5025054;28;20072;-84
2022/01/01 07:00:33;;;;;;;97.38;64.78;;;;;;;;;;5010853;28;20025;-83
2022/01/01 07:02:59;;;;;;;99.95;63.10;;;;;;;;;;5026203;28;20025;-84
2022/01/01 07:05:27;;;;;;;112.70;68.25;;;;;;;;;;5013329;28;20030;-83
2022/01/01 07:07:53;;;;;;;97.78;61.35;;;;;;;;;;5034202;28;20049;-83
2022/01/01 07:10:19;;;;;;;84.95;54.63;;;;;;;;;;5030681;28;20464;-83
2022/01/01 07:12:46;;;;;;;79.88;52.17;;;;;;;;;;5034018;28;20035;-84
2022/01/01 07:15:15;;;;;;;83.03;51.42;;;;;;;;;;5031368;28;20026;-85
2022/01/01 07:17:41;;;;;;;86.78;50.45;;;;;;;;;;5018369;28;20033;-84
2022/01/01 07:20:08;;;;;;;80.13;49.67;;;;;;;;;;5035315;28;20037;-83
2022/01/01 07:22:45;;;;;;;80.47;50.22;;;;;;;;;;5018786;28;20117;-84
2022/01/01 07:25:12;;;;;;;80.10;49.67;;;;;;;;;;5019097;28;20033;-83
2022/01/01 07:27:39;;;;;;;76.63;49.55;;;;;;;;;;5036147;28;20029;-83
2022/01/01 07:30:06;;;;;;;75.32;45.35;;;;;;;;;;5018499;28;20029;-84
2022/01/01 07:32:32;;;;;;;77.28;44.50;;;;;;;;;;5014213;28;20033;-84
2022/01/01 07:34:59;;;;;;;72.10;41.70;;;;;;;;;;5032785;28;20099;-84
2022/01/01 07:37:25;;;;;;;69.05;37.88;;;;;;;;;;5033320;28;20025;-84
2022/01/01 07:39:51;;;;;;;57.45;33.47;;;;;;;;;;5018031;28;20358;-83
2022/01/01 07:42:18;;;;;;;53.88;31.48;;;;;;;;;;5035846;28;20056;-83
2022/01/01 07:44:44;;;;;;;54.15;31.02;;;;;;;;;;5035397;28;20029;-84
2022/01/01 07:47:10;;;;;;;45.50;27.58;;;;;;;;;;5035896;28;20017;-85
2022/01/01 07:49:37;;;;;;;45.03;27.48;;;;;;;;;;5035779;28;20025;-83
2022/01/01 07:52:03;;;;;;;45.20;27.90;;;;;;;;;;5036286;28;20025;-84
2022/01/01 07:54:30;;;;;;;49.15;29.80;;;;;;;;;;5019457;28;20120;-85
2022/01/01 07:56:56;;;;;;;52.38;31.17;;;;;;;;;;5036252;28;20036;-86
2022/01/01 07:59:22;;;;;;;52.50;32.72;;;;;;;;;;5036550;28;20025;-84
2022/01/01 08:01:48;;;;;;;52.63;30.88;;;;;;;;;;5030648;28;20021;-84
2022/01/01 08:04:15;;;;;;;53.13;31.02;;;;;;;;;;5021759;28;20052;-83
2022/01/01 08:06:41;;;;;;;50.83;30.95;;;;;;;;;;5018926;28;20026;-84
2022/01/01 08:09:07;;;;;;;49.58;26.92;;;;;;;;;;5037060;28;20029;-84
2022/01/01 08:11:34;;;;;;;48.30;26.77;;;;;;;;;;5038951;28;20461;-84
2022/01/01 08:14:00;;;;;;;45.08;25.05;;;;;;;;;;5048172;28;20013;-82
2022/01/01 08:16:26;;;;;;;36.95;20.58;;;;;;;;;;5045218;28;20037;-81
2022/01/01 08:18:53;;;;;;;36.38;21.38;;;;;;;;;;5031525;28;20048;-84
2022/01/01 08:21:19;;;;;;;35.30;19.70;;;;;;;;;;5030414;28;20116;-84
2022/01/01 08:23:47;;;;;;;32.67;18.05;;;;;;;;;;5030531;28;20053;-84
2022/01/01 08:26:13;;;;;;;41.63;18.88;;;;;;;;;;5018710;28;20030;-84
2022/01/01 08:28:41;;;;;;;39.40;16.50;;;;;;;;;;5032096;28;20373;-82
2022/01/01 08:31:08;;;;;;;39.30;19.30;;;;;;;;;;5014200;28;20025;-85
2022/01/01 08:33:34;;;;;;;44.28;21.17;;;;;;;;;;5016967;28;20021;-84
2022/01/01 08:36:03;;;;;;;41.40;20.52;;;;;;;;;;5035176;28;20026;-85
2022/01/01 08:38:30;;;;;;;39.65;18.92;;;;;;;;;;5030065;28;20030;-85
2022/01/01 08:40:59;;;;;;;38.47;17.33;;;;;;;;;;5029814;28;20037;-83
2022/01/01 08:43:25;;;;;;;47.63;17.40;;;;;;;;;;5026740;28;20476;-84
2022/01/01 08:45:53;;;;;;;38.95;15.32;;;;;;;;;;5016951;28;20037;-83
2022/01/01 08:48:19;;;;;;;44.80;16.70;;;;;;;;;;5034100;28;20021;-84
2022/01/01 08:50:45;;;;;;;47.42;18.50;;;;;;;;;;5037769;28;20029;-83
2022/01/01 08:53:12;;;;;;;47.35;18.23;;;;;;;;;;5034026;28;20044;-84
2022/01/01 08:55:38;;;;;;;44.63;16.42;;;;;;;;;;5031612;28;20033;-84
2022/01/01 08:58:04;;;;;;;45.10;16.25;;;;;;;;;;5015008;28;20354;-82
2022/01/01 09:00:30;;;;;;;36.00;16.00;;;;;;;;;;5021769;28;20090;-85
2022/01/01 09:02:57;;;;;;;41.15;16.35;;;;;;;;;;5017562;28;20052;-84
2022/01/01 09:05:25;;;;;;;54.22;17.95;;;;;;;;;;5034067;28;20025;-85
2022/01/01 09:07:51;;;;;;;51.50;18.13;;;;;;;;;;5011556;28;20026;-83
2022/01/01 09:10:19;;;;;;;46.10;17.10;;;;;;;;;;5030862;28;20068;-85
2022/01/01 09:12:45;;;;;;;35.13;14.40;;;;;;;;;;5015410;28;20030;-84
2022/01/01 09:15:11;;;;;;;25.73;11.40;;;;;;;;;;5034455;28;20107;-84
2022/01/01 09:17:38;;;;;;;23.73;11.63;;;;;;;;;;5016322;28;20026;-84
2022/01/01 09:20:04;;;;;;;22.70;12.18;;;;;;;;;;5032305;28;20042;-84
2022/01/01 09:22:31;;;;;;;22.67;12.30;;;;;;;;;;5017158;28;20393;-85
2022/01/01 09:24:58;;;;;;;26.67;12.32;;;;;;;;;;5033457;28;20041;-84
2022/01/01 09:27:25;;;;;;;27.33;12.82;;;;;;;;;;5016746;28;20040;-83
2022/01/01 09:29:51;;;;;;;28.23;12.45;;;;;;;;;;5020986;28;20112;-83
2022/01/01 09:32:18;;;;;;;25.75;12.27;;;;;;;;;;5031618;28;20029;-84
2022/01/01 09:34:44;;;;;;;24.20;12.23;;;;;;;;;;5036347;28;20030;-83
2022/01/01 09:37:10;;;;;;;24.10;12.07;;;;;;;;;;5036333;28;20427;-84
2022/01/01 09:39:37;;;;;;;26.88;12.50;;;;;;;;;;5039081;28;20057;-85
2022/01/01 09:42:03;;;;;;;25.17;12.18;;;;;;;;;;5031066;28;20022;-83
2022/01/01 09:44:32;;;;;;;24.35;13.43;;;;;;;;;;5037485;28;20021;-83
2022/01/01 09:46:58;;;;;;;26.38;13.40;;;;;;;;;;5038778;28;20026;-84
2022/01/01 09:49:26;;;;;;;27.05;13.38;;;;;;;;;;5032016;28;20033;-85
2022/01/01 09:51:52;;;;;;;23.02;10.90;;;;;;;;;;5010627;28;20087;-84
2022/01/01 09:54:18;;;;;;;23.77;11.52;;;;;;;;;;5009504;28;20056;-84
2022/01/01 09:56:46;;;;;;;22.40;12.35;;;;;;;;;;5031606;28;20033;-84
2022/01/01 09:59:15;;;;;;;28.13;11.63;;;;;;;;;;5022853;28;20037;-83
2022/01/01 10:01:41;;;;;;;18.88;10.23;;;;;;;;;;5033368;28;20029;-84
2022/01/01 10:04:15;;;;;;;22.08;10.93;;;;;;;;;;5009864;28;20017;-83
2022/01/01 10:06:42;;;;;;;23.15;11.70;;;;;;;;;;5022998;28;20030;-83
2022/01/01 10:09:09;;;;;;;20.27;10.27;;;;;;;;;;5016667;28;20033;-82
2022/01/01 10:11:36;;;;;;;23.27;11.10;;;;;;;;;;5027981;28;20350;-85
2022/01/01 10:14:06;;;;;;;40.05;21.08;;;;;;;;;;5039658;28;20034;-84
2022/01/01 10:16:34;;;;;;;36.60;20.08;;;;;;;;;;5028760;28;20026;-84
2022/01/01 10:19:02;;;;;;;37.70;20.92;;;;;;;;;;5025582;28;20068;-86
2022/01/01 10:21:29;;;;;;;37.83;22.02;;;;;;;;;;4999244;28;20045;-85
2022/01/01 10:23:57;;;;;;;46.00;22.20;;;;;;;;;;5016951;28;20021;-84
2022/01/01 10:29:10;;;;;;;47.95;24.20;;;;;;;;;;5044757;28;20028;-84
2022/01/01 10:31:37;;;;;;;45.40;23.00;;;;;;;;;;5033076;28;20088;-83
2022/01/01 10:34:10;;;;;;;40.72;20.38;;;;;;;;;;5049936;28;20033;-86
2022/01/01 10:36:36;;;;;;;37.67;19.08;;;;;;;;;;5048754;28;20132;-84
2022/01/01 10:39:13;;;;;;;35.15;16.05;;;;;;;;;;5047538;28;20095;-83
2022/01/01 10:41:52;;;;;;;40.38;20.40;;;;;;;;;;5046412;28;20028;-85
2022/01/01 10:44:27;;;;;;;56.65;28.40;;;;;;;;;;5011763;28;20108;-83
2022/01/01 10:46:54;;;;;;;58.28;30.92;;;;;;;;;;5011573;28;20041;-86
2022/01/01 10:52:15;;;;;;;73.03;39.25;;;;;;;;;;5040110;28;20033;-83
2022/01/01 10:54:51;;;;;;;69.40;39.35;;;;;;;;;;5040129;28;20036;-86
2022/01/01 10:57:24;;;;;;;58.08;30.83;;;;;;;;;;5020635;28;20021;-82
2022/01/01 10:59:51;;;;;;;57.83;30.48;;;;;;;;;;5028806;28;20025;-84
2022/01/01 11:02:24;;;;;;;55.33;28.25;;;;;;;;;;5034191;28;20034;-86
2022/01/01 11:04:51;;;;;;;60.60;30.30;;;;;;;;;;5034341;28;20021;-84
2022/01/01 11:07:27;;;;;;;55.80;30.10;;;;;;;;;;5035520;28;20156;-82
2022/01/01 11:09:55;;;;;;;63.30;32.25;;;;;;;;;;5022264;28;20029;-82
2022/01/01 11:12:22;;;;;;;77.03;35.47;;;;;;;;;;5022671;28;20120;-83
2022/01/01 11:14:48;;;;;;;59.20;34.42;;;;;;;;;;5034552;28;20022;-83
2022/01/01 11:17:16;;;;;;;62.10;32.60;;;;;;;;;;5039904;28;20117;-83
2022/01/01 11:19:43;;;;;;;63.40;35.22;;;;;;;;;;5040054;28;20049;-82
2022/01/01 11:22:10;;;;;;;83.78;36.58;;;;;;;;;;5017880;28;20025;-83
2022/01/01 11:24:39;;;;;;;69.75;35.40;;;;;;;;;;5023642;28;20028;-84
2022/01/01 11:27:06;;;;;;;79.15;38.92;;;;;;;;;;5044742;28;20021;-83
2022/01/01 11:29:34;;;;;;;69.13;38.55;;;;;;;;;;5033348;28;20037;-84
2022/01/01 11:32:01;;;;;;;78.13;38.53;;;;;;;;;;5050895;28;20021;-84
2022/01/01 11:34:30;;;;;;;85.03;39.53;;;;;;;;;;5045872;28;20105;-83
2022/01/01 11:36:57;;;;;;;74.93;38.45;;;;;;;;;;5042967;28;20039;-83
2022/01/01 11:39:25;;;;;;;76.28;37.88;;;;;;;;;;5049478;28;20086;-83
2022/01/01 11:41:52;;;;;;;79.40;36.92;;;;;;;;;;5052970;28;20029;-84
2022/01/01 11:44:28;;;;;;;80.85;38.28;;;;;;;;;;5055347;28;20029;-82
2022/01/01 11:47:21;;;;;;;86.25;42.80;;;;;;;;;;5027912;28;20068;-82
2022/01/01 11:49:48;;;;;;;77.90;41.55;;;;;;;;;;5020831;28;20029;-83
2022/01/01 11:52:34;;;;;;;91.68;47.75;;;;;;;;;;5048961;28;20053;-84
2022/01/01 11:55:00;;;;;;;93.00;46.28;;;;;;;;;;5030146;28;20080;-84
2022/01/01 11:57:28;;;;;;;91.72;44.97;;;;;;;;;;5033482;28;20097;-83
2022/01/01 12:00:01;;;;;;;66.50;34.95;;;;;;;;;;5036412;28;20028;-83
2022/01/01 12:02:28;;;;;;;54.58;28.58;;;;;;;;;;5031973;28;20016;-83
2022/01/01 12:04:55;;;;;;;52.92;28.65;;;;;;;;;;5049472;28;20036;-82
2022/01/01 12:07:24;;;;;;;61.80;32.22;;;;;;;;;;5036913;28;20167;-83
2022/01/01 12:10:03;;;;;;;60.70;32.72;;;;;;;;;;5048504;28;20021;-82
2022/01/01 12:12:36;;;;;;;57.80;30.13;;;;;;;;;;5026606;28;20084;-84
2022/01/01 12:15:04;;;;;;;58.22;29.83;;;;;;;;;;5043340;28;20034;-84
2022/01/01 12:17:40;;;;;;;62.90;31.48;;;;;;;;;;5039390;28;20534;-82
2022/01/01 12:20:10;;;;;;;63.13;31.40;;;;;;;;;;5036701;28;20046;-82
2022/01/01 12:22:38;;;;;;;64.75;30.55;;;;;;;;;;5031115;28;20033;-83
2022/01/01 12:25:04;;;;;;;58.33;30.30;;;;;;;;;;5039293;28;20033;-83
2022/01/01 12:27:40;;;;;;;57.35;28.60;;;;;;;;;;5036776;28;20026;-82
2022/01/01 12:30:07;;;;;;;66.70;31.40;;;;;;;;;;5043670;28;20025;-82
2022/01/01 12:32:37;;;;;;;68.38;31.60;;;;;;;;;;5034677;28;20033;-83
2022/01/01 12:35:08;;;;;;;57.83;28.17;;;;;;;;;;5034955;28;20472;-84
2022/01/01 12:37:37;;;;;;;69.32;28.15;;;;;;;;;;5050497;28;20044;-84
2022/01/01 12:40:05;;;;;;;60.53;28.38;;;;;;;;;;5043556;28;20041;-83
2022/01/01 12:42:32;;;;;;;64.05;27.23;;;;;;;;;;5015592;28;20089;-84
2022/01/01 12:45:00;;;;;;;60.33;26.08;;;;;;;;;;5037598;28;20030;-84
2022/01/01 12:47:28;;;;;;;57.30;26.67;;;;;;;;;;5028299;28;20053;-84
2022/01/01 12:49:57;;;;;;;50.83;26.50;;;;;;;;;;5052243;28;20076;-83
2022/01/01 12:52:24;;;;;;;49.65;26.38;;;;;;;;;;5054443;28;20044;-84
2022/01/01 12:54:50;;;;;;;53.67;22.98;;;;;;;;;;5051197;28;20555;-85
2022/01/01 12:57:19;;;;;;;53.08;25.15;;;;;;;;;;5046085;28;20469;-85
2022/01/01 12:59:48;;;;;;;50.60;23.95;;;;;;;;;;5035297;28;20038;-84
2022/01/01 13:02:15;;;;;;;55.25;26.27;;;;;;;;;;5051529;28;20033;-85
2022/01/01 13:04:41;;;;;;;49.95;25.65;;;;;;;;;;5052104;28;20233;-83
2022/01/01 13:07:08;;;;;;;45.90;25.17;;;;;;;;;;5049332;28;20029;-84
2022/01/01 13:09:34;;;;;;;53.15;25.45;;;;;;;;;;5051775;28;20026;-82
2022/01/01 13:12:05;;;;;;;56.10;26.65;;;;;;;;;;5034303;28;20029;-84
2022/01/01 13:14:33;;;;;;;59.20;27.77;;;;;;;;;;5031008;28;20025;-84
2022/01/01 13:17:01;;;;;;;48.10;28.42;;;;;;;;;;5027006;28;20033;-83
2022/01/01 13:19:27;;;;;;;64.80;29.85;;;;;;;;;;5026234;28;20106;-84
2022/01/01 13:21:54;;;;;;;55.92;28.42;;;;;;;;;;5035104;28;20022;-84
2022/01/01 13:24:24;;;;;;;58.58;31.08;;;;;;;;;;5047733;28;20025;-83
2022/01/01 13:26:50;;;;;;;59.45;30.80;;;;;;;;;;5052737;28;20030;-82
2022/01/01 13:29:17;;;;;;;58.90;31.88;;;;;;;;;;5032048;28;20041;-84
2022/01/01 13:31:44;;;;;;;71.38;34.38;;;;;;;;;;5046411;28;20045;-84
2022/01/01 13:34:13;;;;;;;56.38;33.28;;;;;;;;;;5039652;28;20033;-83
2022/01/01 13:36:44;;;;;;;62.33;34.05;;;;;;;;;;5037766;28;20032;-80
2022/01/01 13:39:12;;;;;;;65.57;33.92;;;;;;;;;;5042104;28;20049;-84
2022/01/01 13:41:46;;;;;;;68.40;35.50;;;;;;;;;;5024201;28;20022;-83
2022/01/01 13:44:17;;;;;;;55.67;32.25;;;;;;;;;;5042451;28;20045;-84
2022/01/01 13:46:43;;;;;;;63.55;34.05;;;;;;;;;;5015836;28;20025;-83
2022/01/01 13:49:12;;;;;;;60.33;33.22;;;;;;;;;;5005169;28;20033;-85
2022/01/01 13:51:38;;;;;;;56.53;32.80;;;;;;;;;;5026421;28;20473;-83
2022/01/01 13:54:09;;;;;;;53.50;32.50;;;;;;;;;;5036203;28;20052;-84
2022/01/01 13:56:38;;;;;;;65.85;37.65;;;;;;;;;;5029706;28;20108;-84
2022/01/01 13:59:05;;;;;;;72.60;40.85;;;;;;;;;;5013152;28;20029;-83
2022/01/01 14:01:36;;;;;;;76.95;40.95;;;;;;;;;;5009231;28;20029;-83
2022/01/01 14:04:05;;;;;;;79.25;43.08;;;;;;;;;;5025832;28;20048;-84
2022/01/01 14:06:31;;;;;;;73.70;40.17;;;;;;;;;;5027408;28;20093;-84
2022/01/01 14:09:02;;;;;;;78.38;41.50;;;;;;;;;;5018948;28;20034;-82
2022/01/01 14:11:29;;;;;;;82.10;40.58;;;;;;;;;;5020542;28;20037;-85
2022/01/01 14:14:05;;;;;;;76.55;41.08;;;;;;;;;;5035378;28;20021;-83
2022/01/01 14:16:32;;;;;;;74.68;38.30;;;;;;;;;;5041318;28;20028;-83
2022/01/01 14:19:00;;;;;;;70.15;40.55;;;;;;;;;;5014194;28;20041;-85
2022/01/01 14:21:26;;;;;;;81.28;41.25;;;;;;;;;;5029756;28;20052;-83
2022/01/01 14:23:56;;;;;;;72.80;40.35;;;;;;;;;;5025518;28;21273;-83
2022/01/01 14:26:25;;;;;;;68.97;39.78;;;;;;;;;;5013065;28;20022;-83
2022/01/01 14:28:52;;;;;;;77.28;39.95;;;;;;;;;;5028403;28;20105;-83
2022/01/01 14:31:20;;;;;;;77.65;38.22;;;;;;;;;;5012906;28;20120;-83